Time;durP1;ratioP1;P1;durP2;ratioP2;P2;SDS_P1;SDS_P2;PMS_P1;PMS_P2;Temp;Humidity;BMP_temperature;BMP_pressure;BME280_temperature;BME280_humidity;BME280_pressure;Samples;Min_cycle;Max_cycle;Signal;HPM_P1;HPM_P2
2022/01/01 00:00:06;;;;;;;4;3.35;;;;;;;9.9;92.64746;96145.48;;;;
2022/01/01 00:01:10;;;;;;;4;3.35;;;;;;;9.9;92.64746;96145.48;;;;
2022/01/01 00:02:11;;;;;;;4;3.35;;;;;;;9.9;92.64746;96145.48;;;;
2022/01/01 00:03:11;;;;;;;4;3.35;;;;;;;9.9;92.64746;96145.48;;;;
2022/01/01 00:04:12;;;;;;;4;3.35;;;;;;;9.9;92.64746;96145.48;;;;
2022/01/01 00:05:12;;;;;;;4;3.35;;;;;;;9.9;92.64746;96145.48;;;;
2022/01/01 00:06:13;;;;;;;4;3.35;;;;;;;9.9;92.64746;96145.48;;;;
2022/01/01 00:07:13;;;;;;;4;3.35;;;;;;;9.9;92.64746;96145.48;;;;
2022/01/01 00:08:16;;;;;;;4;3.35;;;;;;;9.9;92.64746;96145.48;;;;
2022/01/01 00:09:16;;;;;;;4;3.35;;;;;;;9.9;92.64746;96145.48;;;;
2022/01/01 00:10:19;;;;;;;4.45;3.55;;;;;;;9.83;92.76953;96155.55;;;;
2022/01/01 00:11:21;;;;;;;4.45;3.55;;;;;;;9.83;92.76953;96155.55;;;;
2022/01/01 00:12:21;;;;;;;4.45;3.55;;;;;;;9.83;92.76953;96155.55;;;;
2022/01/01 00:13:22;;;;;;;4.45;3.55;;;;;;;9.83;92.76953;96155.55;;;;
2022/01/01 00:14:22;;;;;;;4.45;3.55;;;;;;;9.83;92.76953;96155.55;;;;
2022/01/01 00:15:23;;;;;;;4.45;3.55;;;;;;;9.83;92.76953;96155.55;;;;
2022/01/01 00:16:23;;;;;;;4.45;3.55;;;;;;;9.83;92.76953;96155.55;;;;
2022/01/01 00:17:24;;;;;;;4.45;3.55;;;;;;;9.83;92.76953;96155.55;;;;
2022/01/01 00:18:24;;;;;;;4.45;3.55;;;;;;;9.83;92.76953;96155.55;;;;
2022/01/01 00:19:25;;;;;;;4.45;3.55;;;;;;;9.83;92.76953;96155.55;;;;
2022/01/01 00:20:26;;;;;;;4.45;3.55;;;;;;;9.83;92.76953;96155.55;;;;
2022/01/01 00:21:26;;;;;;;5;3.75;;;;;;;9.7;92.91113;96158.67;;;;
2022/01/01 00:22:27;;;;;;;5;3.75;;;;;;;9.7;92.91113;96158.67;;;;
2022/01/01 00:23:27;;;;;;;5;3.75;;;;;;;9.7;92.91113;96158.67;;;;
2022/01/01 00:24:28;;;;;;;5;3.75;;;;;;;9.7;92.91113;96158.67;;;;
2022/01/01 00:25:28;;;;;;;5;3.75;;;;;;;9.7;92.91113;96158.67;;;;
2022/01/01 00:26:29;;;;;;;5;3.75;;;;;;;9.7;92.91113;96158.67;;;;
2022/01/01 00:27:30;;;;;;;5;3.75;;;;;;;9.7;92.91113;96158.67;;;;
2022/01/01 00:28:30;;;;;;;5;3.75;;;;;;;9.7;92.91113;96158.67;;;;
2022/01/01 00:29:31;;;;;;;5;3.75;;;;;;;9.7;92.91113;96158.67;;;;
2022/01/01 00:30:31;;;;;;;5;3.75;;;;;;;9.7;92.91113;96158.67;;;;
2022/01/01 00:31:31;;;;;;;5;3.75;;;;;;;9.7;92.91113;96158.67;;;;
2022/01/01 00:32:32;;;;;;;4.199999;3.45;;;;;;;9.53;93.35449;96160.16;;;;
2022/01/01 00:33:33;;;;;;;4.199999;3.45;;;;;;;9.53;93.35449;96160.16;;;;
2022/01/01 00:34:33;;;;;;;4.199999;3.45;;;;;;;9.53;93.35449;96160.16;;;;
2022/01/01 00:35:34;;;;;;;4.199999;3.45;;;;;;;9.53;93.35449;96160.16;;;;
2022/01/01 00:36:35;;;;;;;4.199999;3.45;;;;;;;9.53;93.35449;96160.16;;;;
2022/01/01 00:37:36;;;;;;;4.199999;3.45;;;;;;;9.53;93.35449;96160.16;;;;
2022/01/01 00:38:36;;;;;;;4.199999;3.45;;;;;;;9.53;93.35449;96160.16;;;;
2022/01/01 00:39:37;;;;;;;4.199999;3.45;;;;;;;9.53;93.35449;96160.16;;;;
2022/01/01 00:40:37;;;;;;;4.199999;3.45;;;;;;;9.53;93.35449;96160.16;;;;
2022/01/01 00:41:38;;;;;;;4.199999;3.45;;;;;;;9.53;93.35449;96160.16;;;;
2022/01/01 00:42:38;;;;;;;4.199999;3.45;;;;;;;9.53;93.35449;96160.16;;;;
2022/01/01 00:43:39;;;;;;;4.15;3.05;;;;;;;9.33;93.66309;96170.01;;;;
2022/01/01 00:44:39;;;;;;;4.15;3.05;;;;;;;9.33;93.66309;96170.01;;;;
2022/01/01 00:45:40;;;;;;;4.15;3.05;;;;;;;9.33;93.66309;96170.01;;;;
2022/01/01 00:46:40;;;;;;;4.15;3.05;;;;;;;9.33;93.66309;96170.01;;;;
2022/01/01 00:47:41;;;;;;;4.15;3.05;;;;;;;9.33;93.66309;96170.01;;;;
2022/01/01 00:48:41;;;;;;;4.15;3.05;;;;;;;9.33;93.66309;96170.01;;;;
2022/01/01 00:49:42;;;;;;;4.15;3.05;;;;;;;9.33;93.66309;96170.01;;;;
2022/01/01 00:50:43;;;;;;;4.15;3.05;;;;;;;9.33;93.66309;96170.01;;;;
2022/01/01 00:51:43;;;;;;;4.15;3.05;;;;;;;9.33;93.66309;96170.01;;;;
2022/01/01 00:52:44;;;;;;;4.15;3.05;;;;;;;9.33;93.66309;96170.01;;;;
2022/01/01 00:53:45;;;;;;;4.15;3.05;;;;;;;9.33;93.66309;96170.01;;;;
2022/01/01 00:54:45;;;;;;;3.7;3.15;;;;;;;9.09;94.22461;96180.95;;;;
2022/01/01 00:55:46;;;;;;;3.7;3.15;;;;;;;9.09;94.22461;96180.95;;;;
2022/01/01 00:56:46;;;;;;;3.7;3.15;;;;;;;9.09;94.22461;96180.95;;;;
2022/01/01 00:57:47;;;;;;;3.7;3.15;;;;;;;9.09;94.22461;96180.95;;;;
2022/01/01 00:58:47;;;;;;;3.7;3.15;;;;;;;9.09;94.22461;96180.95;;;;
2022/01/01 00:59:48;;;;;;;3.7;3.15;;;;;;;9.09;94.22461;96180.95;;;;
2022/01/01 01:00:48;;;;;;;3.7;3.15;;;;;;;9.09;94.22461;96180.95;;;;
2022/01/01 01:01:49;;;;;;;3.7;3.15;;;;;;;9.09;94.22461;96180.95;;;;
2022/01/01 01:02:50;;;;;;;3.7;3.15;;;;;;;9.09;94.22461;96180.95;;;;
2022/01/01 01:03:50;;;;;;;3.7;3.15;;;;;;;9.09;94.22461;96180.95;;;;
2022/01/01 01:04:51;;;;;;;3.7;3.15;;;;;;;9.09;94.22461;96180.95;;;;
2022/01/01 01:05:51;;;;;;;4.1;3.4;;;;;;;8.83;94.88867;96192.07;;;;
2022/01/01 01:06:52;;;;;;;4.1;3.4;;;;;;;8.83;94.88867;96192.07;;;;
2022/01/01 01:07:53;;;;;;;4.1;3.4;;;;;;;8.83;94.88867;96192.07;;;;
2022/01/01 01:08:57;;;;;;;4.1;3.4;;;;;;;8.83;94.88867;96192.07;;;;
2022/01/01 01:09:58;;;;;;;4.1;3.4;;;;;;;8.83;94.88867;96192.07;;;;
2022/01/01 01:10:59;;;;;;;4.1;3.4;;;;;;;8.83;94.88867;96192.07;;;;
2022/01/01 01:12:00;;;;;;;4.1;3.4;;;;;;;8.83;94.88867;96192.07;;;;
2022/01/01 01:13:00;;;;;;;4.1;3.4;;;;;;;8.83;94.88867;96192.07;;;;
2022/01/01 01:14:07;;;;;;;4.1;3.4;;;;;;;8.83;94.88867;96192.07;;;;
2022/01/01 01:15:10;;;;;;;4.1;3.4;;;;;;;8.83;94.88867;96192.07;;;;
2022/01/01 01:16:12;;;;;;;4.800001;3.55;;;;;;;8.56;95.55078;96193.03;;;;
2022/01/01 01:17:12;;;;;;;4.800001;3.55;;;;;;;8.56;95.55078;96193.03;;;;
2022/01/01 01:18:13;;;;;;;4.800001;3.55;;;;;;;8.56;95.55078;96193.03;;;;
2022/01/01 01:19:14;;;;;;;4.800001;3.55;;;;;;;8.56;95.55078;96193.03;;;;
2022/01/01 01:20:15;;;;;;;4.800001;3.55;;;;;;;8.56;95.55078;96193.03;;;;
2022/01/01 01:21:16;;;;;;;4.800001;3.55;;;;;;;8.56;95.55078;96193.03;;;;
2022/01/01 01:22:17;;;;;;;4.800001;3.55;;;;;;;8.56;95.55078;96193.03;;;;
2022/01/01 01:23:17;;;;;;;4.800001;3.55;;;;;;;8.56;95.55078;96193.03;;;;
2022/01/01 01:24:19;;;;;;;4.800001;3.55;;;;;;;8.56;95.55078;96193.03;;;;
2022/01/01 01:25:20;;;;;;;4.800001;3.55;;;;;;;8.56;95.55078;96193.03;;;;
2022/01/01 01:26:22;;;;;;;4.800001;3.55;;;;;;;8.56;95.55078;96193.03;;;;
2022/01/01 01:27:23;;;;;;;4.400001;3.85;;;;;;;8.29;96.33691;96217.74;;;;
2022/01/01 01:28:24;;;;;;;4.400001;3.85;;;;;;;8.29;96.33691;96217.74;;;;
2022/01/01 01:29:25;;;;;;;4.400001;3.85;;;;;;;8.29;96.33691;96217.74;;;;
2022/01/01 01:30:25;;;;;;;4.400001;3.85;;;;;;;8.29;96.33691;96217.74;;;;
2022/01/01 01:31:28;;;;;;;4.400001;3.85;;;;;;;8.29;96.33691;96217.74;;;;
2022/01/01 01:32:29;;;;;;;4.400001;3.85;;;;;;;8.29;96.33691;96217.74;;;;
2022/01/01 01:33:29;;;;;;;4.400001;3.85;;;;;;;8.29;96.33691;96217.74;;;;
2022/01/01 01:34:30;;;;;;;4.400001;3.85;;;;;;;8.29;96.33691;96217.74;;;;
2022/01/01 01:35:31;;;;;;;4.400001;3.85;;;;;;;8.29;96.33691;96217.74;;;;
2022/01/01 01:36:32;;;;;;;4.400001;3.85;;;;;;;8.29;96.33691;96217.74;;;;
2022/01/01 01:37:32;;;;;;;4.400001;3.85;;;;;;;8.29;96.33691;96217.74;;;;
2022/01/01 01:38:36;;;;;;;4.95;4.05;;;;;;;7.89;96.94629;96236.38;;;;
2022/01/01 01:39:37;;;;;;;4.95;4.05;;;;;;;7.89;96.94629;96236.38;;;;
2022/01/01 01:40:37;;;;;;;4.95;4.05;;;;;;;7.89;96.94629;96236.38;;;;
2022/01/01 01:41:38;;;;;;;4.95;4.05;;;;;;;7.89;96.94629;96236.38;;;;
2022/01/01 01:42:39;;;;;;;4.95;4.05;;;;;;;7.89;96.94629;96236.38;;;;
2022/01/01 01:43:40;;;;;;;4.95;4.05;;;;;;;7.89;96.94629;96236.38;;;;
2022/01/01 01:44:43;;;;;;;4.95;4.05;;;;;;;7.89;96.94629;96236.38;;;;
2022/01/01 01:45:44;;;;;;;4.95;4.05;;;;;;;7.89;96.94629;96236.38;;;;
2022/01/01 01:46:44;;;;;;;4.95;4.05;;;;;;;7.89;96.94629;96236.38;;;;
2022/01/01 01:47:45;;;;;;;4.95;4.05;;;;;;;7.89;96.94629;96236.38;;;;
2022/01/01 01:48:47;;;;;;;4.95;4.05;;;;;;;7.89;96.94629;96236.38;;;;
2022/01/01 01:49:48;;;;;;;6.25;4.099999;;;;;;;7.54;97.68945;96238.7;;;;
2022/01/01 01:50:48;;;;;;;6.25;4.099999;;;;;;;7.54;97.68945;96238.7;;;;
2022/01/01 01:51:49;;;;;;;6.25;4.099999;;;;;;;7.54;97.68945;96238.7;;;;
2022/01/01 01:52:50;;;;;;;6.25;4.099999;;;;;;;7.54;97.68945;96238.7;;;;
2022/01/01 01:53:55;;;;;;;6.25;4.099999;;;;;;;7.54;97.68945;96238.7;;;;
2022/01/01 01:54:55;;;;;;;6.25;4.099999;;;;;;;7.54;97.68945;96238.7;;;;
2022/01/01 01:55:56;;;;;;;6.25;4.099999;;;;;;;7.54;97.68945;96238.7;;;;
2022/01/01 01:56:59;;;;;;;6.25;4.099999;;;;;;;7.54;97.68945;96238.7;;;;
2022/01/01 01:57:59;;;;;;;6.25;4.099999;;;;;;;7.54;97.68945;96238.7;;;;
2022/01/01 01:59:00;;;;;;;6.25;4.099999;;;;;;;7.54;97.68945;96238.7;;;;
2022/01/01 02:00:01;;;;;;;6.25;4.099999;;;;;;;7.54;97.68945;96238.7;;;;
2022/01/01 02:01:20;;;;;;;5.25;3.95;;;;;;;7.23;98.3584;96230.56;;;;
2022/01/01 02:02:21;;;;;;;5.25;3.95;;;;;;;7.23;98.3584;96230.56;;;;
2022/01/01 02:03:21;;;;;;;5.25;3.95;;;;;;;7.23;98.3584;96230.56;;;;
2022/01/01 02:04:22;;;;;;;5.25;3.95;;;;;;;7.23;98.3584;96230.56;;;;
2022/01/01 02:05:23;;;;;;;5.25;3.95;;;;;;;7.23;98.3584;96230.56;;;;
2022/01/01 02:06:23;;;;;;;5.25;3.95;;;;;;;7.23;98.3584;96230.56;;;;
2022/01/01 02:07:25;;;;;;;5.25;3.95;;;;;;;7.23;98.3584;96230.56;;;;
2022/01/01 02:08:26;;;;;;;5.25;3.95;;;;;;;7.23;98.3584;96230.56;;;;
2022/01/01 02:09:26;;;;;;;5.25;3.95;;;;;;;7.23;98.3584;96230.56;;;;
2022/01/01 02:10:27;;;;;;;5.25;3.95;;;;;;;7.23;98.3584;96230.56;;;;
2022/01/01 02:11:28;;;;;;;5.3;4.149999;;;;;;;7.02;99.54395;96229.61;;;;
2022/01/01 02:12:29;;;;;;;5.3;4.149999;;;;;;;7.02;99.54395;96229.61;;;;
2022/01/01 02:13:34;;;;;;;5.3;4.149999;;;;;;;7.02;99.54395;96229.61;;;;
2022/01/01 02:14:48;;;;;;;5.3;4.149999;;;;;;;7.02;99.54395;96229.61;;;;
2022/01/01 02:16:11;;;;;;;5.3;4.149999;;;;;;;7.02;99.54395;96229.61;;;;
2022/01/01 02:17:14;;;;;;;5.3;4.149999;;;;;;;7.02;99.54395;96229.61;;;;
2022/01/01 02:18:14;;;;;;;5.3;4.149999;;;;;;;7.02;99.54395;96229.61;;;;
2022/01/01 02:19:15;;;;;;;5.3;4.149999;;;;;;;7.02;99.54395;96229.61;;;;
2022/01/01 02:20:15;;;;;;;5.3;4.149999;;;;;;;7.02;99.54395;96229.61;;;;
2022/01/01 02:21:16;;;;;;;5.3;4.149999;;;;;;;7.02;99.54395;96229.61;;;;
2022/01/01 02:22:18;;;;;;;4.3;3.55;;;;;;;6.84;100;96226.51;;;;
2022/01/01 02:23:21;;;;;;;4.3;3.55;;;;;;;6.84;100;96226.51;;;;
2022/01/01 02:24:24;;;;;;;4.3;3.55;;;;;;;6.84;100;96226.51;;;;
2022/01/01 02:25:24;;;;;;;4.3;3.55;;;;;;;6.84;100;96226.51;;;;
2022/01/01 02:26:25;;;;;;;4.3;3.55;;;;;;;6.84;100;96226.51;;;;
2022/01/01 02:27:34;;;;;;;4.3;3.55;;;;;;;6.84;100;96226.51;;;;
2022/01/01 02:28:35;;;;;;;4.3;3.55;;;;;;;6.84;100;96226.51;;;;
2022/01/01 02:29:36;;;;;;;4.3;3.55;;;;;;;6.84;100;96226.51;;;;
2022/01/01 02:30:36;;;;;;;4.3;3.55;;;;;;;6.84;100;96226.51;;;;
2022/01/01 02:31:37;;;;;;;4.3;3.55;;;;;;;6.84;100;96226.51;;;;
2022/01/01 02:32:38;;;;;;;4.3;3.55;;;;;;;6.84;100;96226.51;;;;
2022/01/01 02:33:39;;;;;;;4.75;3.45;;;;;;;6.68;100;96231.61;;;;
2022/01/01 02:34:41;;;;;;;4.75;3.45;;;;;;;6.68;100;96231.61;;;;
2022/01/01 02:35:42;;;;;;;4.75;3.45;;;;;;;6.68;100;96231.61;;;;
2022/01/01 02:36:43;;;;;;;4.75;3.45;;;;;;;6.68;100;96231.61;;;;
2022/01/01 02:37:44;;;;;;;4.75;3.45;;;;;;;6.68;100;96231.61;;;;
2022/01/01 02:38:45;;;;;;;4.75;3.45;;;;;;;6.68;100;96231.61;;;;
2022/01/01 02:39:45;;;;;;;4.75;3.45;;;;;;;6.68;100;96231.61;;;;
2022/01/01 02:40:46;;;;;;;4.75;3.45;;;;;;;6.68;100;96231.61;;;;
2022/01/01 02:41:46;;;;;;;4.75;3.45;;;;;;;6.68;100;96231.61;;;;
2022/01/01 02:42:51;;;;;;;4.75;3.45;;;;;;;6.68;100;96231.61;;;;
2022/01/01 02:43:52;;;;;;;4.75;3.45;;;;;;;6.68;100;96231.61;;;;
2022/01/01 02:44:54;;;;;;;4.65;2.9;;;;;;;6.5;100;96229;;;;
2022/01/01 02:45:54;;;;;;;4.65;2.9;;;;;;;6.5;100;96229;;;;
2022/01/01 02:46:54;;;;;;;4.65;2.9;;;;;;;6.5;100;96229;;;;
2022/01/01 02:47:56;;;;;;;4.65;2.9;;;;;;;6.5;100;96229;;;;
2022/01/01 02:48:56;;;;;;;4.65;2.9;;;;;;;6.5;100;96229;;;;
2022/01/01 02:49:57;;;;;;;4.65;2.9;;;;;;;6.5;100;96229;;;;
2022/01/01 02:50:57;;;;;;;4.65;2.9;;;;;;;6.5;100;96229;;;;
2022/01/01 02:51:58;;;;;;;4.65;2.9;;;;;;;6.5;100;96229;;;;
2022/01/01 02:52:58;;;;;;;4.65;2.9;;;;;;;6.5;100;96229;;;;
2022/01/01 02:53:59;;;;;;;4.65;2.9;;;;;;;6.5;100;96229;;;;
2022/01/01 02:55:00;;;;;;;3.25;2.7;;;;;;;6.37;100;96213.58;;;;
2022/01/01 02:56:00;;;;;;;3.25;2.7;;;;;;;6.37;100;96213.58;;;;
2022/01/01 02:57:01;;;;;;;3.25;2.7;;;;;;;6.37;100;96213.58;;;;
2022/01/01 02:58:02;;;;;;;3.25;2.7;;;;;;;6.37;100;96213.58;;;;
2022/01/01 02:59:04;;;;;;;3.25;2.7;;;;;;;6.37;100;96213.58;;;;
2022/01/01 03:00:04;;;;;;;3.25;2.7;;;;;;;6.37;100;96213.58;;;;
2022/01/01 03:01:06;;;;;;;3.25;2.7;;;;;;;6.37;100;96213.58;;;;
2022/01/01 03:02:06;;;;;;;3.25;2.7;;;;;;;6.37;100;96213.58;;;;
2022/01/01 03:03:07;;;;;;;3.25;2.7;;;;;;;6.37;100;96213.58;;;;
2022/01/01 03:04:07;;;;;;;3.25;2.7;;;;;;;6.37;100;96213.58;;;;
2022/01/01 03:05:08;;;;;;;3.25;2.7;;;;;;;6.37;100;96213.58;;;;
2022/01/01 03:06:09;;;;;;;3;2.7;;;;;;;6.35;100;96215.22;;;;
2022/01/01 03:07:09;;;;;;;3;2.7;;;;;;;6.35;100;96215.22;;;;
2022/01/01 03:08:10;;;;;;;3;2.7;;;;;;;6.35;100;96215.22;;;;
2022/01/01 03:09:11;;;;;;;3;2.7;;;;;;;6.35;100;96215.22;;;;
2022/01/01 03:10:11;;;;;;;3;2.7;;;;;;;6.35;100;96215.22;;;;
2022/01/01 03:11:12;;;;;;;3;2.7;;;;;;;6.35;100;96215.22;;;;
2022/01/01 03:12:12;;;;;;;3;2.7;;;;;;;6.35;100;96215.22;;;;
2022/01/01 03:13:14;;;;;;;3;2.7;;;;;;;6.35;100;96215.22;;;;
2022/01/01 03:14:17;;;;;;;3;2.7;;;;;;;6.35;100;96215.22;;;;
2022/01/01 03:15:17;;;;;;;3;2.7;;;;;;;6.35;100;96215.22;;;;
2022/01/01 03:16:18;;;;;;;3;2.7;;;;;;;6.35;100;96215.22;;;;
2022/01/01 03:17:19;;;;;;;3.45;2.6;;;;;;;6.36;100;96228.02;;;;
2022/01/01 03:18:19;;;;;;;3.45;2.6;;;;;;;6.36;100;96228.02;;;;
2022/01/01 03:19:20;;;;;;;3.45;2.6;;;;;;;6.36;100;96228.02;;;;
2022/01/01 03:20:20;;;;;;;3.45;2.6;;;;;;;6.36;100;96228.02;;;;
2022/01/01 03:21:21;;;;;;;3.45;2.6;;;;;;;6.36;100;96228.02;;;;
2022/01/01 03:22:21;;;;;;;3.45;2.6;;;;;;;6.36;100;96228.02;;;;
2022/01/01 03:23:22;;;;;;;3.45;2.6;;;;;;;6.36;100;96228.02;;;;
2022/01/01 03:24:22;;;;;;;3.45;2.6;;;;;;;6.36;100;96228.02;;;;
2022/01/01 03:25:23;;;;;;;3.45;2.6;;;;;;;6.36;100;96228.02;;;;
2022/01/01 03:26:23;;;;;;;3.45;2.6;;;;;;;6.36;100;96228.02;;;;
2022/01/01 03:27:24;;;;;;;3.45;2.6;;;;;;;6.36;100;96228.02;;;;
2022/01/01 03:28:24;;;;;;;3.5;2.45;;;;;;;6.37;100;96239.98;;;;
2022/01/01 03:29:28;;;;;;;3.5;2.45;;;;;;;6.37;100;96239.98;;;;
2022/01/01 03:30:29;;;;;;;3.5;2.45;;;;;;;6.37;100;96239.98;;;;
2022/01/01 03:31:30;;;;;;;3.5;2.45;;;;;;;6.37;100;96239.98;;;;
2022/01/01 03:32:30;;;;;;;3.5;2.45;;;;;;;6.37;100;96239.98;;;;
2022/01/01 03:33:31;;;;;;;3.5;2.45;;;;;;;6.37;100;96239.98;;;;
2022/01/01 03:34:31;;;;;;;3.5;2.45;;;;;;;6.37;100;96239.98;;;;
2022/01/01 03:35:32;;;;;;;3.5;2.45;;;;;;;6.37;100;96239.98;;;;
2022/01/01 03:36:32;;;;;;;3.5;2.45;;;;;;;6.37;100;96239.98;;;;
2022/01/01 03:37:33;;;;;;;3.5;2.45;;;;;;;6.37;100;96239.98;;;;
2022/01/01 03:38:34;;;;;;;3.5;2.45;;;;;;;6.37;100;96239.98;;;;
2022/01/01 03:39:35;;;;;;;4.15;2.45;;;;;;;6.33;100;96253.88;;;;
2022/01/01 03:40:35;;;;;;;4.15;2.45;;;;;;;6.33;100;96253.88;;;;
2022/01/01 03:41:36;;;;;;;4.15;2.45;;;;;;;6.33;100;96253.88;;;;
2022/01/01 03:42:36;;;;;;;4.15;2.45;;;;;;;6.33;100;96253.88;;;;
2022/01/01 03:43:37;;;;;;;4.15;2.45;;;;;;;6.33;100;96253.88;;;;
2022/01/01 03:44:37;;;;;;;4.15;2.45;;;;;;;6.33;100;96253.88;;;;
2022/01/01 03:45:38;;;;;;;4.15;2.45;;;;;;;6.33;100;96253.88;;;;
2022/01/01 03:46:38;;;;;;;4.15;2.45;;;;;;;6.33;100;96253.88;;;;
2022/01/01 03:47:39;;;;;;;4.15;2.45;;;;;;;6.33;100;96253.88;;;;
2022/01/01 03:48:39;;;;;;;4.15;2.45;;;;;;;6.33;100;96253.88;;;;
2022/01/01 03:49:40;;;;;;;4.15;2.45;;;;;;;6.33;100;96253.88;;;;
2022/01/01 03:50:40;;;;;;;4.500001;2.5;;;;;;;6.16;100;96260.44;;;;
2022/01/01 03:51:41;;;;;;;4.500001;2.5;;;;;;;6.16;100;96260.44;;;;
2022/01/01 03:52:42;;;;;;;4.500001;2.5;;;;;;;6.16;100;96260.44;;;;
2022/01/01 03:53:43;;;;;;;4.500001;2.5;;;;;;;6.16;100;96260.44;;;;
2022/01/01 03:54:43;;;;;;;4.500001;2.5;;;;;;;6.16;100;96260.44;;;;
2022/01/01 03:55:44;;;;;;;4.500001;2.5;;;;;;;6.16;100;96260.44;;;;
2022/01/01 03:56:44;;;;;;;4.500001;2.5;;;;;;;6.16;100;96260.44;;;;
2022/01/01 03:57:45;;;;;;;4.500001;2.5;;;;;;;6.16;100;96260.44;;;;
2022/01/01 03:58:45;;;;;;;4.500001;2.5;;;;;;;6.16;100;96260.44;;;;
2022/01/01 03:59:46;;;;;;;4.500001;2.5;;;;;;;6.16;100;96260.44;;;;
2022/01/01 04:00:46;;;;;;;3.6;2.55;;;;;;;5.98;100;96276.05;;;;
2022/01/01 04:01:47;;;;;;;3.6;2.55;;;;;;;5.98;100;96276.05;;;;
2022/01/01 04:02:48;;;;;;;3.6;2.55;;;;;;;5.98;100;96276.05;;;;
2022/01/01 04:03:48;;;;;;;3.6;2.55;;;;;;;5.98;100;96276.05;;;;
2022/01/01 04:04:49;;;;;;;3.6;2.55;;;;;;;5.98;100;96276.05;;;;
2022/01/01 04:05:49;;;;;;;3.6;2.55;;;;;;;5.98;100;96276.05;;;;
2022/01/01 04:06:50;;;;;;;3.6;2.55;;;;;;;5.98;100;96276.05;;;;
2022/01/01 04:07:51;;;;;;;3.6;2.55;;;;;;;5.98;100;96276.05;;;;
2022/01/01 04:08:52;;;;;;;3.6;2.55;;;;;;;5.98;100;96276.05;;;;
2022/01/01 04:09:52;;;;;;;3.6;2.55;;;;;;;5.98;100;96276.05;;;;
2022/01/01 04:10:53;;;;;;;3.6;2.55;;;;;;;5.98;100;96276.05;;;;
2022/01/01 04:11:53;;;;;;;4;2.5;;;;;;;5.85;100;96275.45;;;;
2022/01/01 04:12:54;;;;;;;4;2.5;;;;;;;5.85;100;96275.45;;;;
2022/01/01 04:13:54;;;;;;;4;2.5;;;;;;;5.85;100;96275.45;;;;
2022/01/01 04:14:57;;;;;;;4;2.5;;;;;;;5.85;100;96275.45;;;;
2022/01/01 04:15:57;;;;;;;4;2.5;;;;;;;5.85;100;96275.45;;;;
2022/01/01 04:16:58;;;;;;;4;2.5;;;;;;;5.85;100;96275.45;;;;
2022/01/01 04:18:01;;;;;;;4;2.5;;;;;;;5.85;100;96275.45;;;;
2022/01/01 04:19:03;;;;;;;4;2.5;;;;;;;5.85;100;96275.45;;;;
2022/01/01 04:20:04;;;;;;;4;2.5;;;;;;;5.85;100;96275.45;;;;
2022/01/01 04:21:06;;;;;;;4;2.5;;;;;;;5.85;100;96275.45;;;;
2022/01/01 04:22:08;;;;;;;4;2.5;;;;;;;5.85;100;96275.45;;;;
2022/01/01 04:23:10;;;;;;;4.15;2.8;;;;;;;5.69;100;96270.11;;;;
2022/01/01 04:24:11;;;;;;;4.15;2.8;;;;;;;5.69;100;96270.11;;;;
2022/01/01 04:25:11;;;;;;;4.15;2.8;;;;;;;5.69;100;96270.11;;;;
2022/01/01 04:26:12;;;;;;;4.15;2.8;;;;;;;5.69;100;96270.11;;;;
2022/01/01 04:27:12;;;;;;;4.15;2.8;;;;;;;5.69;100;96270.11;;;;
2022/01/01 04:28:13;;;;;;;4.15;2.8;;;;;;;5.69;100;96270.11;;;;
2022/01/01 04:29:13;;;;;;;4.15;2.8;;;;;;;5.69;100;96270.11;;;;
2022/01/01 04:30:14;;;;;;;4.15;2.8;;;;;;;5.69;100;96270.11;;;;
2022/01/01 04:31:15;;;;;;;4.15;2.8;;;;;;;5.69;100;96270.11;;;;
2022/01/01 04:32:18;;;;;;;4.15;2.8;;;;;;;5.69;100;96270.11;;;;
2022/01/01 04:33:18;;;;;;;4.15;2.8;;;;;;;5.69;100;96270.11;;;;
2022/01/01 04:34:19;;;;;;;3.85;2.7;;;;;;;5.48;100;96260.6;;;;
2022/01/01 04:35:19;;;;;;;3.85;2.7;;;;;;;5.48;100;96260.6;;;;
2022/01/01 04:36:21;;;;;;;3.85;2.7;;;;;;;5.48;100;96260.6;;;;
2022/01/01 04:37:22;;;;;;;3.85;2.7;;;;;;;5.48;100;96260.6;;;;
2022/01/01 04:38:35;;;;;;;3.85;2.7;;;;;;;5.48;100;96260.6;;;;
2022/01/01 04:39:36;;;;;;;3.85;2.7;;;;;;;5.48;100;96260.6;;;;
2022/01/01 04:40:37;;;;;;;3.85;2.7;;;;;;;5.48;100;96260.6;;;;
2022/01/01 04:41:37;;;;;;;3.85;2.7;;;;;;;5.48;100;96260.6;;;;
2022/01/01 04:42:38;;;;;;;3.85;2.7;;;;;;;5.48;100;96260.6;;;;
2022/01/01 04:43:39;;;;;;;3.85;2.7;;;;;;;5.48;100;96260.6;;;;
2022/01/01 04:44:40;;;;;;;3.699999;2.7;;;;;;;5.23;100;96255.92;;;;
2022/01/01 04:45:40;;;;;;;3.699999;2.7;;;;;;;5.23;100;96255.92;;;;
2022/01/01 04:46:41;;;;;;;3.699999;2.7;;;;;;;5.23;100;96255.92;;;;
2022/01/01 04:47:41;;;;;;;3.699999;2.7;;;;;;;5.23;100;96255.92;;;;
2022/01/01 04:48:42;;;;;;;3.699999;2.7;;;;;;;5.23;100;96255.92;;;;
2022/01/01 04:49:43;;;;;;;3.699999;2.7;;;;;;;5.23;100;96255.92;;;;
2022/01/01 04:50:43;;;;;;;3.699999;2.7;;;;;;;5.23;100;96255.92;;;;
2022/01/01 04:51:44;;;;;;;3.699999;2.7;;;;;;;5.23;100;96255.92;;;;
2022/01/01 04:52:45;;;;;;;3.699999;2.7;;;;;;;5.23;100;96255.92;;;;
2022/01/01 04:53:46;;;;;;;3.699999;2.7;;;;;;;5.23;100;96255.92;;;;
2022/01/01 04:54:47;;;;;;;3.699999;2.7;;;;;;;5.23;100;96255.92;;;;
2022/01/01 04:55:47;;;;;;;3.45;2.7;;;;;;;5.01;100;96266.22;;;;
2022/01/01 04:56:49;;;;;;;3.45;2.7;;;;;;;5.01;100;96266.22;;;;
2022/01/01 04:57:50;;;;;;;3.45;2.7;;;;;;;5.01;100;96266.22;;;;
2022/01/01 04:58:50;;;;;;;3.45;2.7;;;;;;;5.01;100;96266.22;;;;
2022/01/01 04:59:50;;;;;;;3.45;2.7;;;;;;;5.01;100;96266.22;;;;
2022/01/01 05:00:51;;;;;;;3.45;2.7;;;;;;;5.01;100;96266.22;;;;
2022/01/01 05:01:52;;;;;;;3.45;2.7;;;;;;;5.01;100;96266.22;;;;
2022/01/01 05:02:52;;;;;;;3.45;2.7;;;;;;;5.01;100;96266.22;;;;
2022/01/01 05:03:55;;;;;;;3.45;2.7;;;;;;;5.01;100;96266.22;;;;
2022/01/01 05:04:55;;;;;;;3.45;2.7;;;;;;;5.01;100;96266.22;;;;
2022/01/01 05:05:55;;;;;;;3.45;2.7;;;;;;;5.01;100;96266.22;;;;
2022/01/01 05:06:56;;;;;;;3.45;2.7;;;;;;;5.01;100;96266.22;;;;
2022/01/01 05:07:57;;;;;;;3.45;2.7;;;;;;;5.01;100;96266.22;;;;
2022/01/01 05:08:57;;;;;;;3.45;2.7;;;;;;;5.01;100;96266.22;;;;
2022/01/01 05:09:59;;;;;;;3.45;2.7;;;;;;;5.01;100;96266.22;;;;
2022/01/01 05:11:00;;;;;;;3.45;2.7;;;;;;;5.01;100;96266.22;;;;
2022/01/01 05:12:00;;;;;;;3.45;2.7;;;;;;;5.01;100;96266.22;;;;
2022/01/01 05:13:01;;;;;;;3.45;2.7;;;;;;;5.01;100;96266.22;;;;
2022/01/01 05:14:02;;;;;;;3.45;2.7;;;;;;;5.01;100;96266.22;;;;
2022/01/01 05:15:03;;;;;;;3.45;2.7;;;;;;;5.01;100;96266.22;;;;
2022/01/01 05:16:04;;;;;;;3.45;2.7;;;;;;;5.01;100;96266.22;;;;
2022/01/01 05:17:05;;;;;;;3.45;2.7;;;;;;;5.01;100;96266.22;;;;
2022/01/01 05:18:05;;;;;;;4.100001;2.8;;;;;;;4.64;100;96283.4;;;;
2022/01/01 05:19:06;;;;;;;4.100001;2.8;;;;;;;4.64;100;96283.4;;;;
2022/01/01 05:20:07;;;;;;;4.100001;2.8;;;;;;;4.64;100;96283.4;;;;
2022/01/01 05:21:08;;;;;;;4.100001;2.8;;;;;;;4.64;100;96283.4;;;;
2022/01/01 05:22:09;;;;;;;4.100001;2.8;;;;;;;4.64;100;96283.4;;;;
2022/01/01 05:23:10;;;;;;;4.100001;2.8;;;;;;;4.64;100;96283.4;;;;
2022/01/01 05:24:15;;;;;;;4.100001;2.8;;;;;;;4.64;100;96283.4;;;;
2022/01/01 05:25:16;;;;;;;4.100001;2.8;;;;;;;4.64;100;96283.4;;;;
2022/01/01 05:26:16;;;;;;;4.100001;2.8;;;;;;;4.64;100;96283.4;;;;
2022/01/01 05:27:17;;;;;;;4.100001;2.8;;;;;;;4.64;100;96283.4;;;;
2022/01/01 05:28:17;;;;;;;4.100001;2.8;;;;;;;4.64;100;96283.4;;;;
2022/01/01 05:29:18;;;;;;;2.95;2.6;;;;;;;4.48;100;96277.22;;;;
2022/01/01 05:30:18;;;;;;;2.95;2.6;;;;;;;4.48;100;96277.22;;;;
2022/01/01 05:31:19;;;;;;;2.95;2.6;;;;;;;4.48;100;96277.22;;;;
2022/01/01 05:32:20;;;;;;;2.95;2.6;;;;;;;4.48;100;96277.22;;;;
2022/01/01 05:33:20;;;;;;;2.95;2.6;;;;;;;4.48;100;96277.22;;;;
2022/01/01 05:34:21;;;;;;;2.95;2.6;;;;;;;4.48;100;96277.22;;;;
2022/01/01 05:35:21;;;;;;;2.95;2.6;;;;;;;4.48;100;96277.22;;;;
2022/01/01 05:36:22;;;;;;;2.95;2.6;;;;;;;4.48;100;96277.22;;;;
2022/01/01 05:37:23;;;;;;;2.95;2.6;;;;;;;4.48;100;96277.22;;;;
2022/01/01 05:38:23;;;;;;;2.95;2.6;;;;;;;4.48;100;96277.22;;;;
2022/01/01 05:39:23;;;;;;;2.95;2.6;;;;;;;4.48;100;96277.22;;;;
2022/01/01 05:40:24;;;;;;;4.15;2.85;;;;;;;4.37;100;96276.26;;;;
2022/01/01 05:41:25;;;;;;;4.15;2.85;;;;;;;4.37;100;96276.26;;;;
2022/01/01 05:42:25;;;;;;;4.15;2.85;;;;;;;4.37;100;96276.26;;;;
2022/01/01 05:43:26;;;;;;;4.15;2.85;;;;;;;4.37;100;96276.26;;;;
2022/01/01 05:44:27;;;;;;;4.15;2.85;;;;;;;4.37;100;96276.26;;;;
2022/01/01 05:45:28;;;;;;;4.15;2.85;;;;;;;4.37;100;96276.26;;;;
2022/01/01 05:46:30;;;;;;;4.15;2.85;;;;;;;4.37;100;96276.26;;;;
2022/01/01 05:47:32;;;;;;;4.15;2.85;;;;;;;4.37;100;96276.26;;;;
2022/01/01 05:48:32;;;;;;;4.15;2.85;;;;;;;4.37;100;96276.26;;;;
2022/01/01 05:49:33;;;;;;;4.15;2.85;;;;;;;4.37;100;96276.26;;;;
2022/01/01 05:50:33;;;;;;;3.85;2.95;;;;;;;4.25;100;96276.81;;;;
2022/01/01 05:51:34;;;;;;;3.85;2.95;;;;;;;4.25;100;96276.81;;;;
2022/01/01 05:52:34;;;;;;;3.85;2.95;;;;;;;4.25;100;96276.81;;;;
2022/01/01 05:53:35;;;;;;;3.85;2.95;;;;;;;4.25;100;96276.81;;;;
2022/01/01 05:54:35;;;;;;;3.85;2.95;;;;;;;4.25;100;96276.81;;;;
2022/01/01 05:55:36;;;;;;;3.85;2.95;;;;;;;4.25;100;96276.81;;;;
2022/01/01 05:56:37;;;;;;;3.85;2.95;;;;;;;4.25;100;96276.81;;;;
2022/01/01 05:57:37;;;;;;;3.85;2.95;;;;;;;4.25;100;96276.81;;;;
2022/01/01 05:58:38;;;;;;;3.85;2.95;;;;;;;4.25;100;96276.81;;;;
2022/01/01 05:59:41;;;;;;;3.85;2.95;;;;;;;4.25;100;96276.81;;;;
2022/01/01 06:00:42;;;;;;;3.85;2.95;;;;;;;4.25;100;96276.81;;;;
2022/01/01 06:01:43;;;;;;;4;2.85;;;;;;;4.2;100;96282.7;;;;
2022/01/01 06:02:43;;;;;;;4;2.85;;;;;;;4.2;100;96282.7;;;;
2022/01/01 06:03:44;;;;;;;4;2.85;;;;;;;4.2;100;96282.7;;;;
2022/01/01 06:04:44;;;;;;;4;2.85;;;;;;;4.2;100;96282.7;;;;
2022/01/01 06:05:45;;;;;;;4;2.85;;;;;;;4.2;100;96282.7;;;;
2022/01/01 06:06:45;;;;;;;4;2.85;;;;;;;4.2;100;96282.7;;;;
2022/01/01 06:07:46;;;;;;;4;2.85;;;;;;;4.2;100;96282.7;;;;
2022/01/01 06:08:46;;;;;;;4;2.85;;;;;;;4.2;100;96282.7;;;;